Time;durP1;ratioP1;P1;durP2;ratioP2;P2;SDS_P1;SDS_P2;PMS_P1;PMS_P2;Temp;Humidity;BMP_temperature;BMP_pressure;BME280_temperature;BME280_humidity;BME280_pressure;Samples;Min_cycle;Max_cycle;Signal;HPM_P1;HPM_P2
2022/03/05 00:01:20;;;;;;;46.28;24.98;;;;;;;0.95;100.00;100265.16;5074633;28;20025;-78
2022/03/05 00:03:46;;;;;;;44.92;24.02;;;;;;;0.93;100.00;100272.00;5074873;28;20099;-78
2022/03/05 00:06:11;;;;;;;44.35;24.70;;;;;;;0.93;100.00;100274.56;5074350;28;20098;-78
2022/03/05 00:08:37;;;;;;;44.28;23.83;;;;;;;0.84;100.00;100256.56;5074481;28;20031;-78
2022/03/05 00:11:02;;;;;;;43.00;24.30;;;;;;;0.92;100.00;100276.25;5072833;28;20024;-78
2022/03/05 00:13:28;;;;;;;45.42;25.63;;;;;;;0.89;100.00;100271.16;5074862;28;20032;-78
2022/03/05 00:15:54;;;;;;;49.53;27.25;;;;;;;0.90;100.00;100269.44;5073193;28;20028;-79
2022/03/05 00:18:19;;;;;;;52.28;27.48;;;;;;;0.91;100.00;100279.69;5073301;28;20039;-78
2022/03/05 00:20:45;;;;;;;49.20;26.33;;;;;;;0.85;100.00;100268.56;5073005;28;20055;-78
2022/03/05 00:23:11;;;;;;;45.65;24.42;;;;;;;0.84;100.00;100272.81;5073999;28;20020;-78
2022/03/05 00:25:37;;;;;;;44.05;26.35;;;;;;;0.85;100.00;100271.13;5073982;28;20029;-78
2022/03/05 00:28:03;;;;;;;49.28;26.73;;;;;;;0.82;100.00;100266.84;5072823;28;20031;-79
2022/03/05 00:30:28;;;;;;;48.47;26.58;;;;;;;0.80;100.00;100262.53;5072972;28;20020;-79
2022/03/05 00:32:53;;;;;;;45.92;25.10;;;;;;;0.81;100.00;100271.97;5074205;28;20020;-78
2022/03/05 00:35:19;;;;;;;47.88;26.15;;;;;;;0.80;100.00;100273.69;5072565;28;20042;-78
2022/03/05 00:37:45;;;;;;;49.63;27.25;;;;;;;0.72;100.00;100258.28;5073983;28;20103;-78
2022/03/05 00:40:10;;;;;;;47.53;25.35;;;;;;;0.71;100.00;100259.09;5072462;28;20028;-78
2022/03/05 00:42:36;;;;;;;47.10;25.10;;;;;;;0.73;100.00;100264.25;5072826;28;20028;-79
2022/03/05 00:45:02;;;;;;;47.95;26.50;;;;;;;0.77;100.00;100277.94;5073558;28;20396;-78
2022/03/05 00:47:27;;;;;;;44.42;24.52;;;;;;;0.79;100.00;100277.06;5072690;28;20364;-78
2022/03/05 00:49:53;;;;;;;45.22;25.80;;;;;;;0.75;100.00;100275.34;5072523;28;20074;-78
2022/03/05 00:52:19;;;;;;;43.45;24.50;;;;;;;0.75;100.00;100265.94;5072170;28;20017;-78
2022/03/05 00:54:44;;;;;;;46.03;26.27;;;;;;;0.60;100.00;100245.41;5073621;28;20028;-78
2022/03/05 00:57:10;;;;;;;45.90;26.02;;;;;;;0.69;100.00;100253.13;5073555;28;20027;-78
2022/03/05 00:59:35;;;;;;;73.95;38.78;;;;;;;0.71;100.00;100253.13;5073725;28;20112;-78
2022/03/05 01:02:01;;;;;;;97.80;44.75;;;;;;;0.71;100.00;100256.53;5073409;28;20499;-78
2022/03/05 01:04:26;;;;;;;168.10;63.35;;;;;;;0.65;100.00;100245.44;5073543;28;20028;-78
2022/03/05 01:06:51;;;;;;;87.20;34.72;;;;;;;0.71;100.00;100251.41;5072017;28;20029;-78
2022/03/05 01:09:17;;;;;;;51.30;26.65;;;;;;;0.56;100.00;100230.88;5071759;28;20039;-78
2022/03/05 01:11:42;;;;;;;87.03;33.35;;;;;;;0.66;100.00;100247.97;5073591;28;20078;-78
2022/03/05 01:14:08;;;;;;;63.58;30.35;;;;;;;0.66;100.00;100257.38;5073170;28;20512;-78
2022/03/05 01:16:34;;;;;;;51.50;26.63;;;;;;;0.65;100.00;100258.25;5071995;28;20028;-78
2022/03/05 01:19:00;;;;;;;45.38;23.58;;;;;;;0.63;100.00;100260.81;5071686;28;20472;-78
2022/03/05 01:21:27;;;;;;;44.53;24.13;;;;;;;0.61;100.00;100259.09;5073023;28;20494;-78
2022/03/05 01:23:52;;;;;;;43.00;24.35;;;;;;;0.57;100.00;100252.22;5073075;28;20131;-78
2022/03/05 01:26:18;;;;;;;44.08;24.20;;;;;;;0.49;100.00;100244.50;5072903;28;20265;-78
2022/03/05 01:28:43;;;;;;;45.13;23.88;;;;;;;0.56;100.00;100268.47;5073123;28;20024;-78
2022/03/05 01:31:08;;;;;;;40.35;22.98;;;;;;;0.48;100.00;100253.06;5071471;28;20016;-78
2022/03/05 01:33:34;;;;;;;40.88;23.90;;;;;;;0.38;100.00;100233.34;5072918;28;20029;-78
2022/03/05 01:35:59;;;;;;;40.95;24.20;;;;;;;0.38;100.00;100241.91;5071361;28;20036;-78
2022/03/05 01:38:25;;;;;;;42.92;24.15;;;;;;;0.50;100.00;100264.16;5072760;28;20097;-78
2022/03/05 01:40:51;;;;;;;49.20;27.17;;;;;;;0.39;100.00;100243.63;5071356;28;20039;-79
2022/03/05 01:43:17;;;;;;;45.35;25.77;;;;;;;0.40;100.00;100253.03;5072580;28;20029;-79
2022/03/05 01:45:42;;;;;;;42.33;23.33;;;;;;;0.46;100.00;100265.88;5072412;28;20468;-78
2022/03/05 01:48:08;;;;;;;45.38;26.38;;;;;;;0.45;100.00;100258.16;5071169;28;20028;-78
2022/03/05 01:50:34;;;;;;;42.60;25.02;;;;;;;0.43;100.00;100262.44;5072506;28;20035;-78
2022/03/05 01:53:00;;;;;;;43.20;25.58;;;;;;;0.44;100.00;100261.59;5072768;28;20029;-78
2022/03/05 01:55:25;;;;;;;39.50;25.60;;;;;;;0.45;100.00;100261.56;5072536;28;20043;-79
2022/03/05 01:57:51;;;;;;;45.53;26.98;;;;;;;0.44;100.00;100262.44;5072502;28;20029;-78
2022/03/05 02:00:17;;;;;;;43.20;27.02;;;;;;;0.47;100.00;100261.59;5072146;28;20082;-79
2022/03/05 02:02:43;;;;;;;40.65;24.65;;;;;;;0.46;100.00;100267.56;5072463;28;20032;-78
2022/03/05 02:05:10;;;;;;;42.78;26.42;;;;;;;0.47;100.00;100257.31;5072099;28;20032;-78
2022/03/05 02:07:36;;;;;;;46.63;26.75;;;;;;;0.43;100.00;100255.59;5072170;28;20075;-79
2022/03/05 02:10:04;;;;;;;43.20;27.58;;;;;;;0.47;100.00;100265.00;5070637;28;20066;-78
2022/03/05 02:12:33;;;;;;;49.78;27.63;;;;;;;0.43;100.00;100257.31;5071005;28;20473;-78
2022/03/05 02:15:01;;;;;;;42.58;25.95;;;;;;;0.46;100.00;100262.44;5072263;28;20074;-78
2022/03/05 02:17:29;;;;;;;46.25;28.05;;;;;;;0.44;100.00;100256.44;5071917;28;20025;-78
2022/03/05 02:19:56;;;;;;;42.40;26.65;;;;;;;0.42;100.00;100253.00;5070824;28;20040;-78
2022/03/05 02:22:22;;;;;;;44.85;25.38;;;;;;;0.29;100.00;100239.28;5072085;28;20404;-78
2022/03/05 02:24:50;;;;;;;41.45;25.08;;;;;;;0.34;100.00;100255.56;5070881;28;20031;-78
2022/03/05 02:27:16;;;;;;;47.45;27.23;;;;;;;0.28;100.00;100247.84;5071877;28;20366;-78
2022/03/05 02:29:41;;;;;;;57.75;29.80;;;;;;;0.22;100.00;100240.13;5071972;28;20039;-78
2022/03/05 02:32:07;;;;;;;74.88;34.33;;;;;;;0.13;100.00;100240.09;5070444;28;20028;-78
2022/03/05 02:34:32;;;;;;;68.03;29.33;;;;;;;0.17;100.00;100246.91;5070659;28;20078;-78
2022/03/05 02:36:58;;;;;;;45.90;25.27;;;;;;;0.10;100.00;100245.19;5071827;28;20029;-78
2022/03/05 02:39:26;;;;;;;56.72;25.98;;;;;;;-0.01;100.00;100243.41;5071645;28;20024;-78
2022/03/05 02:41:55;;;;;;;45.97;26.08;;;;;;;0.09;100.00;100261.41;5071931;28;20056;-78
2022/03/05 02:44:21;;;;;;;44.03;25.60;;;;;;;0.08;100.00;100254.56;5070402;28;20051;-78
2022/03/05 02:46:48;;;;;;;45.60;26.15;;;;;;;0.08;100.00;100254.56;5071535;28;20052;-78
2022/03/05 02:49:13;;;;;;;43.95;26.70;;;;;;;0.07;100.00;100245.16;5071588;28;20036;-78
2022/03/05 02:51:39;;;;;;;46.88;27.27;;;;;;;0.05;100.00;100250.28;5071920;28;20029;-78
2022/03/05 02:54:05;;;;;;;40.20;25.63;;;;;;;0.03;100.00;100240.88;5071636;28;20496;-78
2022/03/05 02:56:30;;;;;;;45.42;23.52;;;;;;;0.02;100.00;100239.16;5071687;28;20365;-78
2022/03/05 02:58:56;;;;;;;35.33;22.38;;;;;;;0.02;100.00;100247.72;5071858;28;20020;-78
2022/03/05 03:01:21;;;;;;;34.65;21.05;;;;;;;0.09;100.00;100252.03;5070238;28;20402;-78
2022/03/05 03:03:47;;;;;;;32.25;19.58;;;;;;;0.08;100.00;100249.44;5070390;28;20524;-78
2022/03/05 03:06:12;;;;;;;27.63;18.95;;;;;;;0.07;100.00;100250.28;5071389;28;20392;-78
2022/03/05 03:08:38;;;;;;;33.90;20.02;;;;;;;0.06;100.00;100256.28;5075321;28;20491;-78
2022/03/05 03:11:03;;;;;;;32.33;20.10;;;;;;;0.02;100.00;100252.81;5075616;28;20077;-78
2022/03/05 03:13:29;;;;;;;33.17;20.50;;;;;;;-0.01;100.00;100252.81;5074100;28;20032;-78
2022/03/05 03:15:54;;;;;;;33.70;20.73;;;;;;;-0.07;100.00;100240.81;5074243;28;20039;-78
2022/03/05 03:18:20;;;;;;;28.52;18.95;;;;;;;-0.08;100.00;100245.94;5073924;28;20169;-78
2022/03/05 03:20:45;;;;;;;32.95;20.27;;;;;;;-0.05;100.00;100258.75;5075309;28;20028;-78
2022/03/05 03:23:11;;;;;;;30.65;20.77;;;;;;;-0.15;100.00;100234.81;5074046;28;20111;-78
2022/03/05 03:25:39;;;;;;;29.10;19.08;;;;;;;-0.04;100.00;100257.94;5074050;28;20036;-78
2022/03/05 03:28:06;;;;;;;33.83;19.35;;;;;;;-0.05;100.00;100251.06;5075440;28;20024;-78
2022/03/05 03:30:31;;;;;;;29.33;19.25;;;;;;;-0.17;100.00;100231.41;5075269;28;20464;-78
2022/03/05 03:32:57;;;;;;;28.50;18.70;;;;;;;-0.07;100.00;100248.50;5073861;28;20032;-78
2022/03/05 03:35:22;;;;;;;32.60;19.00;;;;;;;-0.04;100.00;100257.94;5074888;28;20442;-78
2022/03/05 03:37:48;;;;;;;29.27;18.58;;;;;;;-0.09;100.00;100255.31;5075296;28;20040;-78
2022/03/05 03:40:15;;;;;;;31.45;18.67;;;;;;;-0.23;100.00;100228.78;5074907;28;20021;-78
2022/03/05 03:42:43;;;;;;;30.70;18.95;;;;;;;-0.05;100.00;100258.75;5073776;28;20535;-78
2022/03/05 03:45:10;;;;;;;33.20;19.05;;;;;;;-0.15;100.00;100244.19;5073112;28;20059;-78
2022/03/05 03:47:36;;;;;;;34.75;21.98;;;;;;;-0.11;100.00;100254.47;5074922;28;20028;-78
2022/03/05 03:50:05;;;;;;;53.15;27.27;;;;;;;-0.14;100.00;100257.00;5075033;28;20472;-78
2022/03/05 03:52:30;;;;;;;45.47;24.13;;;;;;;-0.15;100.00;100265.53;5074702;28;20431;-78
2022/03/05 03:54:56;;;;;;;44.28;24.27;;;;;;;-0.17;100.00;100264.69;5073620;28;20028;-78
2022/03/05 03:57:21;;;;;;;37.05;21.42;;;;;;;-0.15;100.00;100257.84;5074610;28;20544;-78
2022/03/05 03:59:47;;;;;;;32.60;19.52;;;;;;;-0.14;100.00;100262.09;5073455;28;20032;-78
2022/03/05 04:02:13;;;;;;;29.92;18.73;;;;;;;-0.25;100.00;100250.97;5074391;28;20028;-78
2022/03/05 04:04:38;;;;;;;31.77;17.98;;;;;;;-0.31;100.00;100236.41;5073427;28;20024;-78
2022/03/05 04:09:48;;;;;;;26.35;16.98;;;;;;;-0.25;100.00;100266.31;5074516;28;20448;-78
2022/03/05 04:12:13;;;;;;;23.65;16.38;;;;;;;-0.29;100.00;100268.00;5074215;28;20029;-78
2022/03/05 04:14:38;;;;;;;24.33;16.00;;;;;;;-0.33;100.00;100265.41;5073169;28;20020;-78
2022/03/05 04:17:05;;;;;;;27.40;15.32;;;;;;;-0.33;100.00;100265.41;5074660;28;20032;-78
2022/03/05 04:19:30;;;;;;;24.95;14.18;;;;;;;-0.39;100.00;100265.34;5073929;28;20024;-78
2022/03/05 04:21:55;;;;;;;24.55;16.27;;;;;;;-0.46;100.00;100250.78;5073474;28;20020;-79
2022/03/05 04:24:21;;;;;;;24.05;15.75;;;;;;;-0.39;100.00;100267.91;5074459;28;20461;-78
2022/03/05 04:26:46;;;;;;;21.27;13.70;;;;;;;-0.44;100.00;100262.75;5072940;28;20028;-78
2022/03/05 04:29:11;;;;;;;23.42;14.98;;;;;;;-0.43;100.00;100263.59;5072633;28;20123;-78
2022/03/05 04:31:37;;;;;;;22.65;13.93;;;;;;;-0.42;100.00;100266.19;5072821;28;20028;-78
2022/03/05 04:34:02;;;;;;;24.50;12.98;;;;;;;-0.43;100.00;100268.72;5073012;28;20447;-78
2022/03/05 04:36:28;;;;;;;23.67;14.40;;;;;;;-0.48;100.00;100260.16;5074245;28;20035;-78
2022/03/05 04:38:53;;;;;;;19.80;13.00;;;;;;;-0.51;100.00;100258.41;5074167;28;20029;-78
2022/03/05 04:41:19;;;;;;;19.63;13.43;;;;;;;-0.58;100.00;100252.41;5073762;28;20594;-78
2022/03/05 04:43:44;;;;;;;21.17;13.73;;;;;;;-0.47;100.00;100272.09;5072598;28;20028;-78
2022/03/05 04:46:11;;;;;;;22.13;14.05;;;;;;;-0.46;100.00;100287.50;5072448;28;20055;-78
2022/03/05 04:48:37;;;;;;;20.35;14.10;;;;;;;-0.58;100.00;100267.78;5072742;28;20058;-78
2022/03/05 04:51:02;;;;;;;24.63;13.40;;;;;;;-0.62;100.00;100260.91;5072521;28;20028;-78
2022/03/05 04:53:27;;;;;;;25.58;14.45;;;;;;;-0.60;100.00;100278.81;5073608;28;20522;-78
2022/03/05 04:55:53;;;;;;;20.00;13.45;;;;;;;-0.72;100.00;100265.91;5073684;28;20028;-78
2022/03/05 04:58:18;;;;;;;29.02;18.67;;;;;;;-0.67;100.00;100271.97;5072125;28;20078;-78
2022/03/05 05:00:44;;;;;;;27.52;15.45;;;;;;;-0.68;100.00;100277.91;5073760;28;20031;-78
2022/03/05 05:03:09;;;;;;;26.00;14.35;;;;;;;-0.66;100.00;100279.63;5072511;28;20099;-78
2022/03/05 05:05:35;;;;;;;20.38;12.75;;;;;;;-0.70;100.00;100282.16;5071849;28;20460;-78
2022/03/05 05:08:00;;;;;;;20.60;12.35;;;;;;;-0.72;100.00;100277.00;5072223;28;20021;-79
2022/03/05 05:10:25;;;;;;;20.25;13.10;;;;;;;-0.75;100.00;100284.69;5073190;28;20516;-78
2022/03/05 05:12:51;;;;;;;26.70;15.60;;;;;;;-0.77;100.00;100284.63;5072041;28;20029;-78
2022/03/05 05:15:16;;;;;;;21.48;13.20;;;;;;;-0.83;100.00;100279.47;5072933;28;20457;-78
2022/03/05 05:17:42;;;;;;;18.80;12.32;;;;;;;-0.89;100.00;100270.88;5073406;28;20038;-78
2022/03/05 05:20:08;;;;;;;21.55;12.60;;;;;;;-0.88;100.00;100288.81;5071993;28;20029;-78
2022/03/05 05:22:34;;;;;;;22.33;12.57;;;;;;;-0.91;100.00;100281.09;5071492;28;20031;-78
2022/03/05 05:25:00;;;;;;;26.67;15.95;;;;;;;-1.03;100.00;100274.16;5071785;28;20036;-78
2022/03/05 05:27:25;;;;;;;24.38;13.82;;;;;;;-0.96;100.00;100294.69;5071508;28;20059;-78
2022/03/05 05:29:51;;;;;;;25.20;15.57;;;;;;;-1.01;100.00;100287.84;5072225;28;20047;-78
2022/03/05 05:32:17;;;;;;;26.17;14.80;;;;;;;-1.17;100.00;100265.50;5071656;28;20119;-78
2022/03/05 05:34:43;;;;;;;19.17;13.18;;;;;;;-1.07;100.00;100286.91;5073095;28;20030;-78
2022/03/05 05:37:08;;;;;;;22.35;13.20;;;;;;;-0.98;100.00;100298.91;5072945;28;20468;-78
2022/03/05 05:39:33;;;;;;;18.48;12.63;;;;;;;-1.10;100.00;100290.25;5072642;28;20032;-78
2022/03/05 05:41:59;;;;;;;21.80;12.70;;;;;;;-1.02;100.00;100290.34;5073095;28;20035;-78
2022/03/05 05:44:24;;;;;;;21.13;12.90;;;;;;;-0.98;100.00;100307.44;5071122;28;20490;-78
2022/03/05 05:46:50;;;;;;;18.13;12.07;;;;;;;-1.10;100.00;100284.28;5072814;28;20072;-78
2022/03/05 05:49:15;;;;;;;26.35;12.82;;;;;;;-1.06;100.00;100283.50;5071181;28;20063;-78
2022/03/05 05:51:41;;;;;;;21.10;12.63;;;;;;;-0.96;100.00;100297.25;5072538;28;20078;-78
2022/03/05 05:54:07;;;;;;;23.60;13.48;;;;;;;-0.95;100.00;100302.38;5049853;28;20037;-78
2022/03/05 05:56:33;;;;;;;20.77;12.38;;;;;;;-0.97;100.00;100300.63;5033077;28;20087;-78
2022/03/05 05:58:59;;;;;;;22.05;11.95;;;;;;;-1.03;100.00;100286.09;5050037;28;20400;-78
2022/03/05 06:01:24;;;;;;;21.75;14.18;;;;;;;-0.98;100.00;100292.09;5049843;28;20025;-78
2022/03/05 06:03:50;;;;;;;22.55;13.65;;;;;;;-0.87;100.00;100305.88;5033184;28;20033;-78
2022/03/05 06:06:16;;;;;;;31.08;17.23;;;;;;;-0.82;100.00;100300.78;5032981;28;20095;-78
2022/03/05 06:08:42;;;;;;;29.13;18.10;;;;;;;-0.77;100.00;100310.22;5033019;28;20071;-78
2022/03/05 06:11:07;;;;;;;26.85;16.45;;;;;;;-0.73;100.00;100310.25;5033201;28;20485;-78
2022/03/05 06:13:33;;;;;;;38.70;18.70;;;;;;;-0.67;100.00;100293.28;5049486;28;20090;-78
2022/03/05 06:15:58;;;;;;;35.33;21.98;;;;;;;-0.37;100.00;100314.84;5049789;28;20393;-78
2022/03/05 06:18:24;;;;;;;42.97;24.55;;;;;;;-0.18;100.00;100297.94;5032691;28;20130;-78
2022/03/05 06:20:50;;;;;;;33.10;21.52;;;;;;;0.10;100.00;100304.09;5049637;28;20064;-78
2022/03/05 06:23:17;;;;;;;33.97;20.20;;;;;;;0.18;100.00;100308.44;5033016;28;20060;-78
2022/03/05 06:25:43;;;;;;;29.95;19.63;;;;;;;0.33;100.00;100307.63;5066510;28;20543;-78
2022/03/05 06:28:08;;;;;;;32.58;18.95;;;;;;;0.37;100.00;100299.13;5071970;28;20107;-78
2022/03/05 06:30:34;;;;;;;34.33;19.85;;;;;;;0.60;100.00;100306.09;5070678;28;20053;-78
2022/03/05 06:32:59;;;;;;;29.98;18.80;;;;;;;0.77;100.00;100324.09;5070822;28;20031;-78
2022/03/05 06:35:25;;;;;;;31.42;20.17;;;;;;;0.71;100.00;100301.84;5071880;28;20034;-78
2022/03/05 06:37:50;;;;;;;28.83;18.35;;;;;;;0.80;100.00;100304.47;5070862;28;20104;-78
2022/03/05 06:40:16;;;;;;;28.70;17.80;;;;;;;0.89;100.00;100313.88;5071972;28;20024;-78
2022/03/05 06:42:41;;;;;;;28.88;18.77;;;;;;;0.99;100.00;100324.16;5071514;28;20082;-78
2022/03/05 06:45:08;;;;;;;29.85;20.65;;;;;;;0.97;100.00;100302.81;5071747;28;20064;-78
2022/03/05 06:47:35;;;;;;;30.83;20.40;;;;;;;0.94;100.00;100317.31;5071847;28;20024;-78
2022/03/05 06:50:00;;;;;;;32.45;22.65;;;;;;;0.94;100.00;100320.72;5071925;28;20465;-78
2022/03/05 06:52:25;;;;;;;32.83;20.00;;;;;;;1.01;100.00;100321.59;5071445;28;20103;-78
2022/03/05 06:54:51;;;;;;;29.65;19.08;;;;;;;0.99;100.00;100307.91;5070446;28;20037;-78
2022/03/05 06:57:16;;;;;;;35.15;20.33;;;;;;;1.22;100.00;100328.50;5070281;28;20032;-78
2022/03/05 06:59:41;;;;;;;30.30;20.42;;;;;;;1.18;100.00;100331.91;5071650;28;20059;-78
2022/03/05 07:02:07;;;;;;;27.70;20.63;;;;;;;0.96;100.00;100334.41;5070559;28;20553;-78
2022/03/05 07:04:33;;;;;;;33.55;22.02;;;;;;;0.56;100.00;100297.50;5071574;28;20037;-79
2022/03/05 07:06:58;;;;;;;30.45;21.75;;;;;;;0.62;100.00;100319.75;5070321;28;20036;-79
2022/03/05 07:09:24;;;;;;;30.70;21.45;;;;;;;0.49;100.00;100319.69;5070066;28;20097;-79
2022/03/05 07:11:49;;;;;;;39.85;24.05;;;;;;;0.42;100.00;100335.00;5070230;28;20028;-79
2022/03/05 07:14:15;;;;;;;32.05;21.08;;;;;;;0.31;100.00;100337.53;5071455;28;20036;-79
2022/03/05 07:16:40;;;;;;;33.58;21.60;;;;;;;0.24;100.00;100333.22;5070096;28;20402;-79
2022/03/05 07:19:05;;;;;;;32.30;22.15;;;;;;;0.16;100.00;100322.91;5071670;28;20028;-79
2022/03/05 07:21:31;;;;;;;34.20;22.73;;;;;;;0.11;100.00;100327.16;5071324;28;20025;-79
2022/03/05 07:23:58;;;;;;;36.85;24.35;;;;;;;0.18;100.00;100343.44;5071405;28;20025;-79
2022/03/05 07:26:24;;;;;;;41.88;29.08;;;;;;;0.17;100.00;100346.81;5070964;28;20063;-79
2022/03/05 07:28:50;;;;;;;36.55;23.27;;;;;;;0.22;100.00;100328.09;5071578;28;20052;-79
2022/03/05 07:31:15;;;;;;;37.97;22.70;;;;;;;0.39;100.00;100345.28;5070182;28;20024;-79
2022/03/05 07:33:41;;;;;;;36.78;22.85;;;;;;;0.49;100.00;100332.50;5070000;28;20040;-79
2022/03/05 07:36:06;;;;;;;39.75;22.48;;;;;;;0.87;100.00;100344.63;5070059;28;20028;-78
2022/03/05 07:38:32;;;;;;;28.83;20.23;;;;;;;0.92;100.00;100345.50;5071392;28;20036;-79
2022/03/05 07:40:58;;;;;;;28.08;20.02;;;;;;;0.89;100.00;100345.50;5070040;28;20615;-79
2022/03/05 07:43:23;;;;;;;38.47;20.33;;;;;;;0.92;100.00;100367.72;5071018;28;20035;-79
2022/03/05 07:45:49;;;;;;;30.00;19.05;;;;;;;0.82;100.00;100366.84;5071262;28;20049;-79
2022/03/05 07:48:19;;;;;;;29.45;19.98;;;;;;;0.70;100.00;100370.19;5070039;28;20030;-78
2022/03/05 07:50:46;;;;;;;27.95;19.67;;;;;;;0.59;100.00;100378.69;5069631;28;20036;-79
2022/03/05 07:53:11;;;;;;;25.70;18.92;;;;;;;0.40;100.00;100368.34;5071092;28;20021;-79
2022/03/05 07:55:37;;;;;;;28.75;19.17;;;;;;;0.37;100.00;100380.25;5074606;28;20399;-78
2022/03/05 07:58:03;;;;;;;32.03;21.83;;;;;;;0.14;100.00;100368.16;5073673;28;20537;-78
2022/03/05 08:00:28;;;;;;;32.60;22.55;;;;;;;0.08;100.00;100385.19;5073399;28;20028;-79
2022/03/05 08:02:53;;;;;;;27.55;19.60;;;;;;;-0.03;100.00;100385.13;5074583;28;20464;-79
2022/03/05 08:05:19;;;;;;;29.73;19.05;;;;;;;-0.11;100.00;100395.28;5074853;28;20395;-79
2022/03/05 08:07:45;;;;;;;27.92;19.15;;;;;;;-0.11;100.00;100391.88;5073021;28;20017;-78
2022/03/05 08:10:10;;;;;;;36.45;24.05;;;;;;;-0.10;100.00;100398.69;5073115;28;20460;-78
2022/03/05 08:12:36;;;;;;;37.45;24.90;;;;;;;-0.13;100.00;100376.47;5074413;28;20157;-79
2022/03/05 08:15:03;;;;;;;34.05;21.38;;;;;;;-0.05;100.00;100389.34;5074568;28;20072;-79
2022/03/05 08:17:29;;;;;;;33.25;21.98;;;;;;;-0.19;100.00;100373.88;5074107;28;20387;-79
2022/03/05 08:19:54;;;;;;;35.58;22.60;;;;;;;-0.21;100.00;100385.81;5074377;28;20028;-80
2022/03/05 08:22:20;;;;;;;38.10;24.33;;;;;;;-0.11;100.00;100391.88;5074270;28;20032;-79
2022/03/05 08:24:45;;;;;;;34.17;22.25;;;;;;;-0.05;100.00;100391.91;5073909;28;20036;-79
2022/03/05 08:27:11;;;;;;;56.95;33.80;;;;;;;0.03;100.00;100392.81;5073079;28;20017;-79
2022/03/05 08:29:36;;;;;;;132.15;67.88;;;;;;;-0.05;100.00;100372.28;5074098;28;20024;-79
2022/03/05 08:32:02;;;;;;;46.67;31.30;;;;;;;0.03;100.00;100392.81;5072917;28;20035;-79
2022/03/05 08:34:27;;;;;;;44.80;26.88;;;;;;;0.04;100.00;100396.25;5073770;28;20078;-78
2022/03/05 08:36:52;;;;;;;36.65;23.10;;;;;;;-0.02;100.00;100407.31;5073998;28;20028;-79
2022/03/05 08:39:18;;;;;;;39.13;23.52;;;;;;;-0.02;100.00;100415.00;5073926;28;20082;-79
2022/03/05 08:41:43;;;;;;;40.03;24.23;;;;;;;-0.04;100.00;100409.00;5072397;28;20032;-79
2022/03/05 08:44:08;;;;;;;35.05;24.27;;;;;;;0.00;100.00;100410.75;5073925;28;20025;-79
2022/03/05 08:46:34;;;;;;;35.95;25.17;;;;;;;0.06;100.00;100422.75;5073668;28;20122;-79
2022/03/05 08:48:59;;;;;;;43.95;27.25;;;;;;;0.03;100.00;100425.28;5073818;28;20418;-79
2022/03/05 08:51:25;;;;;;;38.67;27.92;;;;;;;0.05;100.00;100424.44;5072406;28;20036;-79
2022/03/05 08:53:50;;;;;;;39.15;26.38;;;;;;;0.05;100.00;100418.47;5073524;28;20391;-79
2022/03/05 08:56:16;;;;;;;41.47;26.30;;;;;;;0.08;100.00;100426.16;5073884;28;20044;-79
2022/03/05 08:58:41;;;;;;;44.08;26.63;;;;;;;0.07;100.00;100421.88;5072296;28;20082;-78
2022/03/05 09:01:06;;;;;;;49.65;32.75;;;;;;;0.10;100.00;100421.94;5072192;28;20468;-79
2022/03/05 09:03:32;;;;;;;43.70;29.92;;;;;;;0.15;100.00;100420.25;5072034;28;20025;-79
2022/03/05 09:05:58;;;;;;;33.58;25.15;;;;;;;0.06;100.00;100404.81;5073422;28;20427;-79
2022/03/05 09:08:23;;;;;;;42.72;28.63;;;;;;;0.12;100.00;100428.75;5072339;28;20525;-79
2022/03/05 09:10:49;;;;;;;43.55;28.80;;;;;;;0.11;100.00;100421.94;5073097;28;20029;-80
2022/03/05 09:13:14;;;;;;;37.38;24.33;;;;;;;0.07;100.00;100424.44;5072228;28;20458;-79
2022/03/05 09:15:39;;;;;;;37.97;25.88;;;;;;;0.04;100.00;100430.38;5071930;28;20078;-79
2022/03/05 09:18:05;;;;;;;53.55;29.42;;;;;;;0.07;100.00;100427.00;5071983;28;20369;-78
2022/03/05 09:20:31;;;;;;;47.45;29.50;;;;;;;0.19;100.00;100435.66;5072907;28;20494;-78
2022/03/05 09:22:58;;;;;;;52.33;30.05;;;;;;;0.14;100.00;100403.19;5073123;28;20107;-79
2022/03/05 09:25:24;;;;;;;44.25;27.08;;;;;;;0.36;100.00;100430.66;5071582;28;20460;-79
2022/03/05 09:27:49;;;;;;;45.28;26.15;;;;;;;0.48;100.00;100424.78;5073031;28;20067;-79
2022/03/05 09:30:15;;;;;;;37.75;23.60;;;;;;;0.57;100.00;100429.09;5071824;28;20081;-78
2022/03/05 09:32:40;;;;;;;51.13;27.58;;;;;;;0.60;100.00;100429.13;5071493;28;20484;-78
2022/03/05 09:35:06;;;;;;;56.10;31.00;;;;;;;0.70;100.00;100426.59;5072912;28;20028;-79
2022/03/05 09:37:33;;;;;;;57.70;31.88;;;;;;;0.80;100.00;100411.28;5072532;28;20044;-79
2022/03/05 09:39:59;;;;;;;57.28;31.80;;;;;;;1.00;100.00;100422.50;5071620;28;20028;-78
2022/03/05 09:42:25;;;;;;;43.13;25.65;;;;;;;1.21;100.00;100414.03;5072862;28;20034;-79
2022/03/05 09:44:50;;;;;;;43.97;28.38;;;;;;;1.39;100.00;100416.66;5071042;28;20150;-79
2022/03/05 09:47:16;;;;;;;38.05;23.85;;;;;;;1.54;100.00;100420.97;5072686;28;20021;-79
2022/03/05 09:49:42;;;;;;;39.55;26.10;;;;;;;1.60;100.00;100414.97;5072435;28;20033;-80
2022/03/05 09:52:09;;;;;;;49.17;27.35;;;;;;;1.68;100.00;100413.28;5072455;28;20043;-80
2022/03/05 09:54:35;;;;;;;38.95;26.95;;;;;;;1.70;100.00;100404.75;5071092;28;20025;-80
2022/03/05 09:57:01;;;;;;;45.40;25.90;;;;;;;1.81;100.00;100409.88;5071367;28;20411;-80
2022/03/05 09:59:26;;;;;;;42.30;26.33;;;;;;;1.71;100.00;100395.31;5071187;28;20025;-79
2022/03/05 10:01:52;;;;;;;40.88;26.60;;;;;;;1.72;100.00;100400.44;5070894;28;20535;-80
2022/03/05 10:04:22;;;;;;;42.55;26.00;;;;;;;1.89;100.00;100410.75;5072337;28;20468;-80
2022/03/05 10:07:16;;;;;;;67.72;31.58;;;;;;;1.94;100.00;100421.91;5070556;28;20034;-79
2022/03/05 10:09:46;;;;;;;46.75;27.85;;;;;;;1.85;100.00;100411.59;5069951;28;20122;-80
2022/03/05 10:12:29;;;;;;;45.50;27.30;;;;;;;1.92;100.00;100422.75;5071002;28;20166;-80
2022/03/05 10:15:11;;;;;;;42.08;25.85;;;;;;;1.92;100.00;100425.31;5071003;28;20035;-79
2022/03/05 10:17:45;;;;;;;42.70;26.38;;;;;;;1.81;100.00;100422.72;5072182;28;20042;-79
2022/03/05 10:20:11;;;;;;;53.20;31.88;;;;;;;1.74;100.00;100419.31;5071064;28;20368;-79
2022/03/05 10:22:36;;;;;;;46.28;28.65;;;;;;;1.78;100.00;100416.75;5069249;28;20055;-79
2022/03/05 10:25:02;;;;;;;46.28;26.83;;;;;;;1.75;100.00;100412.44;5052887;28;20047;-80
2022/03/05 10:27:30;;;;;;;42.75;28.05;;;;;;;1.75;100.00;100400.47;5069541;28;20044;-80
2022/03/05 10:29:56;;;;;;;47.08;30.00;;;;;;;1.77;100.00;100409.88;5069312;28;20099;-80
2022/03/05 10:32:22;;;;;;;51.90;30.10;;;;;;;1.78;100.00;100398.78;5052699;28;20547;-80
2022/03/05 10:34:50;;;;;;;51.67;29.38;;;;;;;2.09;100.00;100413.34;5029008;28;20140;-80
2022/03/05 10:37:18;;;;;;;37.95;26.05;;;;;;;2.16;100.00;100407.34;5029421;28;20080;-80
2022/03/05 10:39:44;;;;;;;40.28;25.05;;;;;;;2.14;100.00;100405.63;5029578;28;20524;-80
2022/03/05 10:42:17;;;;;;;35.33;24.25;;;;;;;1.97;100.00;100385.06;5029526;28;20038;-80
2022/03/05 10:44:42;;;;;;;42.08;27.00;;;;;;;2.11;100.00;100403.94;5012385;28;20421;-80
2022/03/05 10:47:08;;;;;;;40.67;26.15;;;;;;;2.02;100.00;100403.91;5012819;28;20039;-80
2022/03/05 10:49:38;;;;;;;54.92;31.50;;;;;;;1.96;100.00;100409.91;5012807;28;20128;-80
2022/03/05 10:52:07;;;;;;;52.08;28.50;;;;;;;1.88;100.00;100406.47;5029319;28;20084;-80
2022/03/05 10:54:38;;;;;;;41.80;27.35;;;;;;;1.66;100.00;100391.91;5012749;28;20044;-80
2022/03/05 10:57:11;;;;;;;42.25;26.75;;;;;;;1.53;100.00;100388.47;5029354;28;20064;-80
2022/03/05 10:59:39;;;;;;;38.92;25.75;;;;;;;1.58;100.00;100393.59;5029023;28;20046;-80
2022/03/05 11:02:06;;;;;;;39.65;26.40;;;;;;;1.56;100.00;100390.16;5029179;28;20128;-80
2022/03/05 11:04:37;;;;;;;44.00;26.35;;;;;;;1.61;100.00;100386.75;5029286;28;20277;-80